sim
Sign-in with your pilot id or email,
or register
Callsign
Passwort

Schedule Details

Flight Number: DLH2366
Departure: Munich Airport (EDDM) at 06:55
Arrival: Zurich Airport (LSZH) at 07:50
Route: Lufthansa Passenger Schedule. Enter filed route here before submitting Pirep.

Weather Information
Getting current METAR information for EDDM 221650Z 07002KT 9999 FEW040CB 20/15 Q1010 NOSIG
Getting current METAR information for LSZH 221650Z 20003KT 9999 FEW030TCU 21/15 Q1010 NOSIG

Schedule Frequency

Route Map